sensor_id;sensor_type;location;lat;lon;timestamp;P1;durP1;ratioP1;P2;durP2;ratioP2
16502;SDS011;53067;48.114;11.694;2022-09-09T00:01:37;1.33;;;1.23;;
16502;SDS011;53067;48.114;11.694;2022-09-09T00:04:12;1.40;;;1.37;;
16502;SDS011;53067;48.114;11.694;2022-09-09T00:09:34;1.60;;;1.50;;
16502;SDS011;53067;48.114;11.694;2022-09-09T00:12:15;1.70;;;1.60;;
16502;SDS011;53067;48.114;11.694;2022-09-09T00:14:48;1.63;;;1.43;;
16502;SDS011;53067;48.114;11.694;2022-09-09T00:17:34;1.63;;;1.30;;
16502;SDS011;53067;48.114;11.694;2022-09-09T00:20:12;1.30;;;1.30;;
16502;SDS011;53067;48.114;11.694;2022-09-09T00:22:49;1.93;;;1.20;;
16502;SDS011;53067;48.114;11.694;2022-09-09T00:25:29;1.20;;;1.20;;
16502;SDS011;53067;48.114;11.694;2022-09-09T00:28:02;1.63;;;1.50;;
16502;SDS011;53067;48.114;11.694;2022-09-09T00:30:32;1.53;;;1.17;;
16502;SDS011;53067;48.114;11.694;2022-09-09T00:33:08;1.60;;;1.50;;
16502;SDS011;53067;48.114;11.694;2022-09-09T00:35:40;1.60;;;1.50;;
16502;SDS011;53067;48.114;11.694;2022-09-09T00:38:15;2.87;;;1.50;;
16502;SDS011;53067;48.114;11.694;2022-09-09T00:43:35;1.90;;;1.80;;
16502;SDS011;53067;48.114;11.694;2022-09-09T00:46:25;1.43;;;1.20;;
16502;SDS011;53067;48.114;11.694;2022-09-09T00:49:02;2.13;;;1.40;;
16502;SDS011;53067;48.114;11.694;2022-09-09T00:54:40;2.37;;;1.50;;
16502;SDS011;53067;48.114;11.694;2022-09-09T00:57:28;1.17;;;1.13;;
16502;SDS011;53067;48.114;11.694;2022-09-09T01:00:19;1.77;;;1.50;;
16502;SDS011;53067;48.114;11.694;2022-09-09T01:02:52;1.47;;;1.37;;
16502;SDS011;53067;48.114;11.694;2022-09-09T01:05:27;1.87;;;1.40;;
16502;SDS011;53067;48.114;11.694;2022-09-09T01:09:02;2.40;;;1.00;;
16502;SDS011;53067;48.114;11.694;2022-09-09T01:10:52;2.67;;;1.40;;
16502;SDS011;53067;48.114;11.694;2022-09-09T01:13:25;2.37;;;1.40;;
16502;SDS011;53067;48.114;11.694;2022-09-09T01:16:01;1.90;;;1.50;;
16502;SDS011;53067;48.114;11.694;2022-09-09T01:18:29;1.20;;;1.10;;
16502;SDS011;53067;48.114;11.694;2022-09-09T01:21:12;2.37;;;1.40;;
16502;SDS011;53067;48.114;11.694;2022-09-09T01:26:26;1.00;;;1.00;;
16502;SDS011;53067;48.114;11.694;2022-09-09T01:29:01;2.17;;;1.30;;
16502;SDS011;53067;48.114;11.694;2022-09-09T01:31:31;1.67;;;1.30;;
16502;SDS011;53067;48.114;11.694;2022-09-09T01:34:00;1.33;;;1.23;;
16502;SDS011;53067;48.114;11.694;2022-09-09T01:36:38;3.67;;;1.53;;
16502;SDS011;53067;48.114;11.694;2022-09-09T01:39:04;1.13;;;1.07;;
16502;SDS011;53067;48.114;11.694;2022-09-09T01:41:32;1.60;;;1.50;;
16502;SDS011;53067;48.114;11.694;2022-09-09T01:43:59;1.43;;;1.40;;
16502;SDS011;53067;48.114;11.694;2022-09-09T01:46:27;1.23;;;1.13;;
16502;SDS011;53067;48.114;11.694;2022-09-09T01:48:55;1.70;;;1.60;;
16502;SDS011;53067;48.114;11.694;2022-09-09T01:51:23;1.93;;;1.20;;
16502;SDS011;53067;48.114;11.694;2022-09-09T01:53:51;1.43;;;1.30;;
16502;SDS011;53067;48.114;11.694;2022-09-09T01:56:22;1.20;;;1.10;;
16502;SDS011;53067;48.114;11.694;2022-09-09T02:06:46;1.30;;;1.20;;
16502;SDS011;53067;48.114;11.694;2022-09-09T02:09:17;1.73;;;1.60;;
16502;SDS011;53067;48.114;11.694;2022-09-09T02:11:47;2.30;;;1.60;;
16502;SDS011;53067;48.114;11.694;2022-09-09T02:14:19;1.93;;;1.27;;
16502;SDS011;53067;48.114;11.694;2022-09-09T02:16:55;1.20;;;1.20;;
16502;SDS011;53067;48.114;11.694;2022-09-09T02:19:23;1.87;;;1.40;;
16502;SDS011;53067;48.114;11.694;2022-09-09T02:21:53;1.30;;;1.20;;
16502;SDS011;53067;48.114;11.694;2022-09-09T02:24:23;1.20;;;1.10;;
16502;SDS011;53067;48.114;11.694;2022-09-09T02:26:53;1.30;;;1.20;;
16502;SDS011;53067;48.114;11.694;2022-09-09T02:29:28;1.73;;;1.47;;
16502;SDS011;53067;48.114;11.694;2022-09-09T02:31:58;1.63;;;1.30;;
16502;SDS011;53067;48.114;11.694;2022-09-09T02:34:31;2.37;;;1.80;;
16502;SDS011;53067;48.114;11.694;2022-09-09T02:37:02;1.47;;;1.23;;
16502;SDS011;53067;48.114;11.694;2022-09-09T02:39:32;2.40;;;1.30;;
16502;SDS011;53067;48.114;11.694;2022-09-09T02:41:59;1.30;;;1.20;;
16502;SDS011;53067;48.114;11.694;2022-09-09T02:44:29;1.53;;;1.40;;
16502;SDS011;53067;48.114;11.694;2022-09-09T02:47:07;2.80;;;1.30;;
16502;SDS011;53067;48.114;11.694;2022-09-09T02:49:40;1.60;;;1.30;;
16502;SDS011;53067;48.114;11.694;2022-09-09T02:52:13;1.40;;;1.30;;
16502;SDS011;53067;48.114;11.694;2022-09-09T02:54:43;1.20;;;1.10;;
16502;SDS011;53067;48.114;11.694;2022-09-09T02:57:16;2.10;;;1.10;;
16502;SDS011;53067;48.114;11.694;2022-09-09T02:59:48;1.23;;;1.07;;
16502;SDS011;53067;48.114;11.694;2022-09-09T03:02:17;1.13;;;1.13;;
16502;SDS011;53067;48.114;11.694;2022-09-09T03:04:45;1.23;;;1.13;;
16502;SDS011;53067;48.114;11.694;2022-09-09T03:07:14;1.40;;;1.30;;
16502;SDS011;53067;48.114;11.694;2022-09-09T03:09:43;1.00;;;1.00;;
16502;SDS011;53067;48.114;11.694;2022-09-09T03:12:11;1.57;;;1.40;;
16502;SDS011;53067;48.114;11.694;2022-09-09T03:14:39;1.10;;;1.10;;
16502;SDS011;53067;48.114;11.694;2022-09-09T03:17:06;1.17;;;1.07;;
16502;SDS011;53067;48.114;11.694;2022-09-09T03:19:34;1.10;;;1.00;;
16502;SDS011;53067;48.114;11.694;2022-09-09T03:22:03;1.00;;;1.00;;
16502;SDS011;53067;48.114;11.694;2022-09-09T03:24:31;1.20;;;0.90;;
16502;SDS011;53067;48.114;11.694;2022-09-09T03:26:59;1.20;;;1.20;;
16502;SDS011;53067;48.114;11.694;2022-09-09T03:29:27;2.27;;;1.30;;
16502;SDS011;53067;48.114;11.694;2022-09-09T03:31:54;1.20;;;1.10;;
16502;SDS011;53067;48.114;11.694;2022-09-09T03:34:22;1.50;;;1.40;;
16502;SDS011;53067;48.114;11.694;2022-09-09T03:36:49;1.10;;;1.10;;
16502;SDS011;53067;48.114;11.694;2022-09-09T03:39:17;1.10;;;1.10;;
16502;SDS011;53067;48.114;11.694;2022-09-09T03:41:44;1.60;;;1.20;;
16502;SDS011;53067;48.114;11.694;2022-09-09T03:44:14;1.07;;;1.07;;
16502;SDS011;53067;48.114;11.694;2022-09-09T03:46:42;3.13;;;1.10;;
16502;SDS011;53067;48.114;11.694;2022-09-09T03:49:09;1.73;;;1.23;;
16502;SDS011;53067;48.114;11.694;2022-09-09T03:51:37;1.10;;;1.07;;
16502;SDS011;53067;48.114;11.694;2022-09-09T03:54:05;1.73;;;1.10;;
16502;SDS011;53067;48.114;11.694;2022-09-09T03:56:34;1.80;;;1.30;;
16502;SDS011;53067;48.114;11.694;2022-09-09T03:59:02;1.20;;;1.10;;
16502;SDS011;53067;48.114;11.694;2022-09-09T04:01:30;3.17;;;1.27;;
16502;SDS011;53067;48.114;11.694;2022-09-09T04:03:58;0.97;;;0.97;;
16502;SDS011;53067;48.114;11.694;2022-09-09T04:06:25;1.13;;;1.03;;
16502;SDS011;53067;48.114;11.694;2022-09-09T04:08:53;1.30;;;1.20;;
16502;SDS011;53067;48.114;11.694;2022-09-09T04:11:21;1.80;;;1.50;;
16502;SDS011;53067;48.114;11.694;2022-09-09T04:13:49;1.93;;;1.30;;
16502;SDS011;53067;48.114;11.694;2022-09-09T04:16:16;1.77;;;1.17;;
16502;SDS011;53067;48.114;11.694;2022-09-09T04:18:44;2.10;;;1.00;;
16502;SDS011;53067;48.114;11.694;2022-09-09T04:21:12;1.30;;;1.20;;
16502;SDS011;53067;48.114;11.694;2022-09-09T04:23:41;1.47;;;1.00;;
16502;SDS011;53067;48.114;11.694;2022-09-09T04:26:09;2.57;;;1.20;;
16502;SDS011;53067;48.114;11.694;2022-09-09T04:28:36;1.20;;;1.20;;
16502;SDS011;53067;48.114;11.694;2022-09-09T04:31:05;1.67;;;1.03;;
16502;SDS011;53067;48.114;11.694;2022-09-09T04:33:35;1.43;;;1.30;;
16502;SDS011;53067;48.114;11.694;2022-09-09T04:36:04;1.37;;;1.30;;
16502;SDS011;53067;48.114;11.694;2022-09-09T04:38:32;1.10;;;1.10;;
16502;SDS011;53067;48.114;11.694;2022-09-09T04:41:00;3.20;;;1.40;;
16502;SDS011;53067;48.114;11.694;2022-09-09T04:43:27;1.33;;;1.20;;
16502;SDS011;53067;48.114;11.694;2022-09-09T04:45:56;1.27;;;1.17;;
16502;SDS011;53067;48.114;11.694;2022-09-09T04:48:26;1.33;;;1.20;;
16502;SDS011;53067;48.114;11.694;2022-09-09T04:51:03;1.10;;;1.10;;
16502;SDS011;53067;48.114;11.694;2022-09-09T04:53:32;1.30;;;1.20;;
16502;SDS011;53067;48.114;11.694;2022-09-09T04:56:10;1.30;;;1.20;;
16502;SDS011;53067;48.114;11.694;2022-09-09T04:58:39;1.33;;;1.33;;
16502;SDS011;53067;48.114;11.694;2022-09-09T05:01:09;1.17;;;1.17;;
16502;SDS011;53067;48.114;11.694;2022-09-09T05:03:38;2.40;;;1.20;;
16502;SDS011;53067;48.114;11.694;2022-09-09T05:06:11;2.67;;;1.23;;
16502;SDS011;53067;48.114;11.694;2022-09-09T05:08:39;1.57;;;1.40;;
16502;SDS011;53067;48.114;11.694;2022-09-09T05:11:17;1.17;;;1.17;;
16502;SDS011;53067;48.114;11.694;2022-09-09T05:13:47;2.00;;;1.00;;
16502;SDS011;53067;48.114;11.694;2022-09-09T05:16:16;1.03;;;0.90;;
16502;SDS011;53067;48.114;11.694;2022-09-09T05:18:44;1.30;;;1.20;;
16502;SDS011;53067;48.114;11.694;2022-09-09T05:21:13;1.20;;;1.10;;
16502;SDS011;53067;48.114;11.694;2022-09-09T05:23:41;1.87;;;1.30;;
16502;SDS011;53067;48.114;11.694;2022-09-09T05:26:11;3.00;;;1.17;;
16502;SDS011;53067;48.114;11.694;2022-09-09T05:28:39;1.53;;;1.10;;
16502;SDS011;53067;48.114;11.694;2022-09-09T05:31:07;1.20;;;1.20;;
16502;SDS011;53067;48.114;11.694;2022-09-09T05:33:38;1.00;;;1.00;;
16502;SDS011;53067;48.114;11.694;2022-09-09T05:36:14;1.33;;;1.20;;
16502;SDS011;53067;48.114;11.694;2022-09-09T05:38:39;3.10;;;1.10;;
16502;SDS011;53067;48.114;11.694;2022-09-09T05:41:07;1.77;;;1.20;;
16502;SDS011;53067;48.114;11.694;2022-09-09T05:43:38;1.30;;;1.20;;
16502;SDS011;53067;48.114;11.694;2022-09-09T05:46:06;1.17;;;1.10;;
16502;SDS011;53067;48.114;11.694;2022-09-09T05:48:39;2.60;;;1.10;;
16502;SDS011;53067;48.114;11.694;2022-09-09T05:51:09;1.60;;;1.10;;
16502;SDS011;53067;48.114;11.694;2022-09-09T05:53:42;1.00;;;1.00;;
16502;SDS011;53067;48.114;11.694;2022-09-09T05:56:11;1.50;;;1.00;;
16502;SDS011;53067;48.114;11.694;2022-09-09T05:58:40;1.47;;;1.10;;
16502;SDS011;53067;48.114;11.694;2022-09-09T06:01:13;3.13;;;1.30;;
16502;SDS011;53067;48.114;11.694;2022-09-09T06:03:43;2.20;;;1.10;;
16502;SDS011;53067;48.114;11.694;2022-09-09T06:06:13;1.30;;;1.20;;
16502;SDS011;53067;48.114;11.694;2022-09-09T06:08:43;1.27;;;1.17;;
16502;SDS011;53067;48.114;11.694;2022-09-09T06:11:13;1.80;;;1.13;;
16502;SDS011;53067;48.114;11.694;2022-09-09T06:13:42;0.83;;;0.83;;
16502;SDS011;53067;48.114;11.694;2022-09-09T06:16:10;1.30;;;1.20;;
16502;SDS011;53067;48.114;11.694;2022-09-09T06:18:40;1.30;;;1.20;;
16502;SDS011;53067;48.114;11.694;2022-09-09T06:21:11;1.67;;;1.30;;
16502;SDS011;53067;48.114;11.694;2022-09-09T06:23:46;2.50;;;1.13;;
16502;SDS011;53067;48.114;11.694;2022-09-09T06:26:15;2.73;;;1.37;;
16502;SDS011;53067;48.114;11.694;2022-09-09T06:28:45;1.50;;;1.10;;
16502;SDS011;53067;48.114;11.694;2022-09-09T06:31:14;2.60;;;1.40;;
16502;SDS011;53067;48.114;11.694;2022-09-09T06:33:45;1.80;;;1.03;;
16502;SDS011;53067;48.114;11.694;2022-09-09T06:36:14;2.10;;;1.30;;
16502;SDS011;53067;48.114;11.694;2022-09-09T06:38:46;1.30;;;1.10;;
16502;SDS011;53067;48.114;11.694;2022-09-09T06:41:15;1.00;;;0.90;;
16502;SDS011;53067;48.114;11.694;2022-09-09T06:43:45;1.20;;;1.10;;
16502;SDS011;53067;48.114;11.694;2022-09-09T06:46:14;1.47;;;1.37;;
16502;SDS011;53067;48.114;11.694;2022-09-09T06:48:44;1.97;;;1.30;;
16502;SDS011;53067;48.114;11.694;2022-09-09T06:51:21;2.17;;;1.70;;
16502;SDS011;53067;48.114;11.694;2022-09-09T06:53:50;1.75;;;1.50;;
16502;SDS011;53067;48.114;11.694;2022-09-09T06:56:18;2.10;;;1.55;;
16502;SDS011;53067;48.114;11.694;2022-09-09T06:58:49;5.73;;;1.30;;
16502;SDS011;53067;48.114;11.694;2022-09-09T07:01:19;3.65;;;1.40;;
16502;SDS011;53067;48.114;11.694;2022-09-09T07:03:55;2.20;;;1.15;;
16502;SDS011;53067;48.114;11.694;2022-09-09T07:06:25;1.47;;;1.17;;
16502;SDS011;53067;48.114;11.694;2022-09-09T07:08:55;1.80;;;1.00;;
16502;SDS011;53067;48.114;11.694;2022-09-09T07:11:25;1.37;;;1.10;;
16502;SDS011;53067;48.114;11.694;2022-09-09T07:13:54;1.80;;;0.83;;
16502;SDS011;53067;48.114;11.694;2022-09-09T07:16:24;1.25;;;0.90;;
16502;SDS011;53067;48.114;11.694;2022-09-09T07:18:53;2.40;;;1.20;;
16502;SDS011;53067;48.114;11.694;2022-09-09T07:21:25;1.82;;;1.35;;
16502;SDS011;53067;48.114;11.694;2022-09-09T07:23:54;1.20;;;1.02;;
16502;SDS011;53067;48.114;11.694;2022-09-09T07:26:23;1.80;;;0.90;;
16502;SDS011;53067;48.114;11.694;2022-09-09T07:28:54;1.40;;;1.30;;
16502;SDS011;53067;48.114;11.694;2022-09-09T07:31:24;1.07;;;1.07;;
16502;SDS011;53067;48.114;11.694;2022-09-09T07:33:56;1.20;;;1.10;;
16502;SDS011;53067;48.114;11.694;2022-09-09T07:36:26;1.80;;;1.20;;
16502;SDS011;53067;48.114;11.694;2022-09-09T07:38:57;1.25;;;0.88;;
16502;SDS011;53067;48.114;11.694;2022-09-09T07:41:31;3.70;;;1.00;;
16502;SDS011;53067;48.114;11.694;2022-09-09T07:44:07;1.30;;;0.90;;
16502;SDS011;53067;48.114;11.694;2022-09-09T07:46:36;1.40;;;1.03;;
16502;SDS011;53067;48.114;11.694;2022-09-09T07:49:07;0.90;;;0.90;;
16502;SDS011;53067;48.114;11.694;2022-09-09T07:51:36;1.30;;;0.80;;
16502;SDS011;53067;48.114;11.694;2022-09-09T07:54:07;1.72;;;1.27;;
16502;SDS011;53067;48.114;11.694;2022-09-09T07:56:37;0.90;;;0.90;;
16502;SDS011;53067;48.114;11.694;2022-09-09T07:59:06;0.90;;;0.90;;
16502;SDS011;53067;48.114;11.694;2022-09-09T08:01:35;0.90;;;0.90;;
16502;SDS011;53067;48.114;11.694;2022-09-09T08:04:06;1.23;;;1.13;;
16502;SDS011;53067;48.114;11.694;2022-09-09T08:06:36;1.80;;;1.00;;
16502;SDS011;53067;48.114;11.694;2022-09-09T08:09:06;0.95;;;0.95;;
16502;SDS011;53067;48.114;11.694;2022-09-09T08:11:35;2.33;;;1.20;;
16502;SDS011;53067;48.114;11.694;2022-09-09T08:14:03;0.72;;;0.72;;
16502;SDS011;53067;48.114;11.694;2022-09-09T08:16:33;1.10;;;0.97;;
16502;SDS011;53067;48.114;11.694;2022-09-09T08:19:03;1.35;;;0.93;;
16502;SDS011;53067;48.114;11.694;2022-09-09T08:21:34;0.90;;;0.90;;
16502;SDS011;53067;48.114;11.694;2022-09-09T08:24:04;1.32;;;1.17;;
16502;SDS011;53067;48.114;11.694;2022-09-09T08:26:33;1.22;;;1.07;;
16502;SDS011;53067;48.114;11.694;2022-09-09T08:29:03;1.80;;;1.10;;
16502;SDS011;53067;48.114;11.694;2022-09-09T08:31:37;1.87;;;1.10;;
16502;SDS011;53067;48.114;11.694;2022-09-09T08:34:12;1.00;;;1.00;;
16502;SDS011;53067;48.114;11.694;2022-09-09T08:36:41;1.25;;;1.15;;
16502;SDS011;53067;48.114;11.694;2022-09-09T08:39:11;1.00;;;0.97;;
16502;SDS011;53067;48.114;11.694;2022-09-09T08:41:50;1.63;;;0.90;;
16502;SDS011;53067;48.114;11.694;2022-09-09T08:47:06;0.90;;;0.82;;
16502;SDS011;53067;48.114;11.694;2022-09-09T08:49:39;0.88;;;0.80;;
16502;SDS011;53067;48.114;11.694;2022-09-09T08:52:13;0.80;;;0.80;;
16502;SDS011;53067;48.114;11.694;2022-09-09T08:54:53;1.90;;;1.00;;
16502;SDS011;53067;48.114;11.694;2022-09-09T08:57:32;1.20;;;0.90;;
16502;SDS011;53067;48.114;11.694;2022-09-09T09:00:01;1.00;;;0.93;;
16502;SDS011;53067;48.114;11.694;2022-09-09T09:05:19;1.30;;;1.20;;
16502;SDS011;53067;48.114;11.694;2022-09-09T09:07:54;1.00;;;0.85;;
16502;SDS011;53067;48.114;11.694;2022-09-09T09:10:48;1.20;;;1.10;;
16502;SDS011;53067;48.114;11.694;2022-09-09T09:13:18;1.17;;;1.07;;
16502;SDS011;53067;48.114;11.694;2022-09-09T09:15:55;1.00;;;1.00;;
16502;SDS011;53067;48.114;11.694;2022-09-09T09:18:24;1.57;;;1.22;;
16502;SDS011;53067;48.114;11.694;2022-09-09T09:23:35;2.70;;;1.50;;
16502;SDS011;53067;48.114;11.694;2022-09-09T09:26:09;1.10;;;1.10;;
16502;SDS011;53067;48.114;11.694;2022-09-09T09:28:37;1.55;;;1.42;;
16502;SDS011;53067;48.114;11.694;2022-09-09T09:31:09;1.35;;;1.12;;
16502;SDS011;53067;48.114;11.694;2022-09-09T09:33:41;1.20;;;1.10;;
16502;SDS011;53067;48.114;11.694;2022-09-09T09:36:16;1.82;;;1.02;;
16502;SDS011;53067;48.114;11.694;2022-09-09T09:38:57;0.98;;;0.98;;
16502;SDS011;53067;48.114;11.694;2022-09-09T09:41:32;1.30;;;1.20;;
16502;SDS011;53067;48.114;11.694;2022-09-09T09:46:51;1.55;;;1.07;;
16502;SDS011;53067;48.114;11.694;2022-09-09T09:49:19;1.00;;;1.00;;
16502;SDS011;53067;48.114;11.694;2022-09-09T09:51:47;2.42;;;1.10;;
16502;SDS011;53067;48.114;11.694;2022-09-09T09:54:17;1.05;;;1.00;;
16502;SDS011;53067;48.114;11.694;2022-09-09T09:56:47;2.55;;;1.20;;
16502;SDS011;53067;48.114;11.694;2022-09-09T09:59:32;4.22;;;1.55;;
16502;SDS011;53067;48.114;11.694;2022-09-09T10:01:52;6.78;;;2.10;;
16502;SDS011;53067;48.114;11.694;2022-09-09T10:04:20;8.35;;;1.82;;
16502;SDS011;53067;48.114;11.694;2022-09-09T10:06:51;2.60;;;1.40;;
16502;SDS011;53067;48.114;11.694;2022-09-09T10:11:55;2.27;;;1.15;;
16502;SDS011;53067;48.114;11.694;2022-09-09T10:19:37;3.72;;;1.40;;
16502;SDS011;53067;48.114;11.694;2022-09-09T10:28:00;1.32;;;1.20;;
16502;SDS011;53067;48.114;11.694;2022-09-09T10:33:37;0.90;;;0.90;;
16502;SDS011;53067;48.114;11.694;2022-09-09T10:36:13;0.80;;;0.80;;
16502;SDS011;53067;48.114;11.694;2022-09-09T10:38:45;1.15;;;1.10;;
16502;SDS011;53067;48.114;11.694;2022-09-09T10:44:17;1.17;;;1.07;;
16502;SDS011;53067;48.114;11.694;2022-09-09T10:49:37;0.85;;;0.82;;
16502;SDS011;53067;48.114;11.694;2022-09-09T10:52:19;1.17;;;1.07;;
16502;SDS011;53067;48.114;11.694;2022-09-09T10:55:23;0.78;;;0.78;;
16502;SDS011;53067;48.114;11.694;2022-09-09T11:02:57;1.62;;;0.80;;
16502;SDS011;53067;48.114;11.694;2022-09-09T11:05:46;0.98;;;0.88;;
16502;SDS011;53067;48.114;11.694;2022-09-09T11:08:23;1.62;;;0.85;;
16502;SDS011;53067;48.114;11.694;2022-09-09T11:10:55;0.78;;;0.78;;
16502;SDS011;53067;48.114;11.694;2022-09-09T11:13:43;0.80;;;0.70;;
16502;SDS011;53067;48.114;11.694;2022-09-09T11:16:23;0.85;;;0.50;;
16502;SDS011;53067;48.114;11.694;2022-09-09T11:19:00;2.15;;;0.90;;
16502;SDS011;53067;48.114;11.694;2022-09-09T11:21:34;0.90;;;0.82;;
16502;SDS011;53067;48.114;11.694;2022-09-09T11:24:04;0.50;;;0.50;;
16502;SDS011;53067;48.114;11.694;2022-09-09T11:26:38;1.17;;;0.90;;
16502;SDS011;53067;48.114;11.694;2022-09-09T11:29:15;1.30;;;1.00;;
16502;SDS011;53067;48.114;11.694;2022-09-09T11:40:26;0.47;;;0.47;;
16502;SDS011;53067;48.114;11.694;2022-09-09T11:43:03;0.93;;;0.78;;
16502;SDS011;53067;48.114;11.694;2022-09-09T11:45:33;0.60;;;0.60;;
16502;SDS011;53067;48.114;11.694;2022-09-09T11:48:03;1.30;;;0.80;;
16502;SDS011;53067;48.114;11.694;2022-09-09T11:50:32;0.70;;;0.70;;
16502;SDS011;53067;48.114;11.694;2022-09-09T11:53:15;1.35;;;0.70;;
16502;SDS011;53067;48.114;11.694;2022-09-09T11:55:42;0.60;;;0.60;;
16502;SDS011;53067;48.114;11.694;2022-09-09T12:00:41;0.68;;;0.68;;
16502;SDS011;53067;48.114;11.694;2022-09-09T12:06:29;0.78;;;0.55;;
16502;SDS011;53067;48.114;11.694;2022-09-09T12:09:09;1.20;;;0.50;;
16502;SDS011;53067;48.114;11.694;2022-09-09T12:11:50;0.65;;;0.65;;
16502;SDS011;53067;48.114;11.694;2022-09-09T12:14:37;0.75;;;0.60;;
16502;SDS011;53067;48.114;11.694;2022-09-09T12:17:26;0.50;;;0.50;;
16502;SDS011;53067;48.114;11.694;2022-09-09T12:19:43;1.65;;;0.50;;
16502;SDS011;53067;48.114;11.694;2022-09-09T12:30:41;0.62;;;0.62;;
16502;SDS011;53067;48.114;11.694;2022-09-09T12:33:24;0.50;;;0.50;;
16502;SDS011;53067;48.114;11.694;2022-09-09T12:35:55;0.60;;;0.60;;
16502;SDS011;53067;48.114;11.694;2022-09-09T12:38:48;0.50;;;0.50;;
16502;SDS011;53067;48.114;11.694;2022-09-09T12:41:02;1.07;;;0.80;;
16502;SDS011;53067;48.114;11.694;2022-09-09T12:43:32;0.90;;;0.90;;
16502;SDS011;53067;48.114;11.694;2022-09-09T12:46:00;0.50;;;0.50;;
16502;SDS011;53067;48.114;11.694;2022-09-09T12:48:34;0.80;;;0.50;;
16502;SDS011;53067;48.114;11.694;2022-09-09T12:51:00;0.75;;;0.60;;
16502;SDS011;53067;48.114;11.694;2022-09-09T12:53:30;1.47;;;0.60;;
16502;SDS011;53067;48.114;11.694;2022-09-09T12:56:17;0.90;;;0.80;;
16502;SDS011;53067;48.114;11.694;2022-09-09T12:58:36;1.67;;;0.85;;
16502;SDS011;53067;48.114;11.694;2022-09-09T13:01:05;0.53;;;0.50;;
16502;SDS011;53067;48.114;11.694;2022-09-09T13:03:41;1.67;;;0.70;;
16502;SDS011;53067;48.114;11.694;2022-09-09T13:06:12;0.50;;;0.50;;
16502;SDS011;53067;48.114;11.694;2022-09-09T13:08:42;0.50;;;0.50;;
16502;SDS011;53067;48.114;11.694;2022-09-09T13:11:13;1.65;;;0.60;;
16502;SDS011;53067;48.114;11.694;2022-09-09T13:13:43;0.62;;;0.62;;
16502;SDS011;53067;48.114;11.694;2022-09-09T13:16:21;0.47;;;0.47;;
16502;SDS011;53067;48.114;11.694;2022-09-09T13:18:55;0.75;;;0.47;;
16502;SDS011;53067;48.114;11.694;2022-09-09T13:21:36;0.70;;;0.50;;
16502;SDS011;53067;48.114;11.694;2022-09-09T13:24:21;0.98;;;0.70;;
16502;SDS011;53067;48.114;11.694;2022-09-09T13:26:36;1.12;;;0.70;;
16502;SDS011;53067;48.114;11.694;2022-09-09T13:29:23;0.98;;;0.85;;
16502;SDS011;53067;48.114;11.694;2022-09-09T13:31:44;0.57;;;0.57;;
16502;SDS011;53067;48.114;11.694;2022-09-09T13:34:12;0.72;;;0.50;;
16502;SDS011;53067;48.114;11.694;2022-09-09T13:36:41;0.40;;;0.40;;
16502;SDS011;53067;48.114;11.694;2022-09-09T13:39:15;0.40;;;0.40;;
16502;SDS011;53067;48.114;11.694;2022-09-09T13:41:45;1.10;;;0.50;;
16502;SDS011;53067;48.114;11.694;2022-09-09T13:44:22;0.40;;;0.40;;
16502;SDS011;53067;48.114;11.694;2022-09-09T13:47:02;0.45;;;0.45;;
16502;SDS011;53067;48.114;11.694;2022-09-09T13:49:35;4.20;;;0.90;;
16502;SDS011;53067;48.114;11.694;2022-09-09T13:52:04;3.27;;;0.78;;
16502;SDS011;53067;48.114;11.694;2022-09-09T13:54:52;0.90;;;0.70;;
16502;SDS011;53067;48.114;11.694;2022-09-09T13:57:22;0.75;;;0.75;;
16502;SDS011;53067;48.114;11.694;2022-09-09T13:59:52;0.42;;;0.42;;
16502;SDS011;53067;48.114;11.694;2022-09-09T14:02:23;0.90;;;0.55;;
16502;SDS011;53067;48.114;11.694;2022-09-09T14:04:51;1.15;;;0.60;;
16502;SDS011;53067;48.114;11.694;2022-09-09T14:07:20;0.68;;;0.60;;
16502;SDS011;53067;48.114;11.694;2022-09-09T14:09:48;0.70;;;0.70;;
16502;SDS011;53067;48.114;11.694;2022-09-09T14:12:17;0.50;;;0.50;;
16502;SDS011;53067;48.114;11.694;2022-09-09T14:14:45;0.70;;;0.70;;
16502;SDS011;53067;48.114;11.694;2022-09-09T14:17:13;0.50;;;0.50;;
16502;SDS011;53067;48.114;11.694;2022-09-09T14:19:43;0.42;;;0.42;;
16502;SDS011;53067;48.114;11.694;2022-09-09T14:22:11;0.50;;;0.50;;
16502;SDS011;53067;48.114;11.694;2022-09-09T14:24:39;0.57;;;0.57;;
16502;SDS011;53067;48.114;11.694;2022-09-09T14:27:06;0.50;;;0.50;;
16502;SDS011;53067;48.114;11.694;2022-09-09T14:29:34;1.42;;;0.78;;
16502;SDS011;53067;48.114;11.694;2022-09-09T14:32:02;0.50;;;0.50;;
16502;SDS011;53067;48.114;11.694;2022-09-09T14:34:29;1.57;;;0.50;;
16502;SDS011;53067;48.114;11.694;2022-09-09T14:36:58;1.57;;;0.68;;
16502;SDS011;53067;48.114;11.694;2022-09-09T14:39:26;0.70;;;0.70;;
16502;SDS011;53067;48.114;11.694;2022-09-09T14:41:53;0.70;;;0.70;;
16502;SDS011;53067;48.114;11.694;2022-09-09T14:44:21;0.50;;;0.50;;
16502;SDS011;53067;48.114;11.694;2022-09-09T14:46:49;1.07;;;0.70;;
16502;SDS011;53067;48.114;11.694;2022-09-09T14:49:16;1.25;;;0.70;;
16502;SDS011;53067;48.114;11.694;2022-09-09T14:51:44;0.70;;;0.57;;
16502;SDS011;53067;48.114;11.694;2022-09-09T14:54:12;0.50;;;0.50;;
16502;SDS011;53067;48.114;11.694;2022-09-09T14:56:40;0.70;;;0.70;;
16502;SDS011;53067;48.114;11.694;2022-09-09T14:59:08;0.60;;;0.60;;
16502;SDS011;53067;48.114;11.694;2022-09-09T15:01:35;1.20;;;0.70;;
16502;SDS011;53067;48.114;11.694;2022-09-09T15:04:04;0.98;;;0.75;;
16502;SDS011;53067;48.114;11.694;2022-09-09T15:06:33;0.93;;;0.70;;
16502;SDS011;53067;48.114;11.694;2022-09-09T15:09:03;0.68;;;0.68;;
16502;SDS011;53067;48.114;11.694;2022-09-09T15:11:33;1.90;;;0.90;;
16502;SDS011;53067;48.114;11.694;2022-09-09T15:14:06;1.20;;;1.10;;
16502;SDS011;53067;48.114;11.694;2022-09-09T15:16:34;1.80;;;0.90;;
16502;SDS011;53067;48.114;11.694;2022-09-09T15:19:03;1.32;;;0.60;;
16502;SDS011;53067;48.114;11.694;2022-09-09T15:21:31;0.47;;;0.47;;
16502;SDS011;53067;48.114;11.694;2022-09-09T15:24:01;1.67;;;0.90;;
16502;SDS011;53067;48.114;11.694;2022-09-09T15:26:30;1.10;;;0.80;;
16502;SDS011;53067;48.114;11.694;2022-09-09T15:28:58;0.70;;;0.70;;
16502;SDS011;53067;48.114;11.694;2022-09-09T15:31:26;1.45;;;0.80;;
16502;SDS011;53067;48.114;11.694;2022-09-09T15:33:56;1.12;;;0.90;;
16502;SDS011;53067;48.114;11.694;2022-09-09T15:36:41;0.80;;;0.80;;
16502;SDS011;53067;48.114;11.694;2022-09-09T15:39:06;0.57;;;0.53;;
16502;SDS011;53067;48.114;11.694;2022-09-09T15:41:38;0.75;;;0.65;;
16502;SDS011;53067;48.114;11.694;2022-09-09T15:44:06;1.52;;;0.93;;
16502;SDS011;53067;48.114;11.694;2022-09-09T15:46:37;0.90;;;0.80;;
16502;SDS011;53067;48.114;11.694;2022-09-09T15:49:11;1.65;;;0.78;;
16502;SDS011;53067;48.114;11.694;2022-09-09T15:51:40;0.78;;;0.68;;
16502;SDS011;53067;48.114;11.694;2022-09-09T15:54:15;0.80;;;0.80;;
16502;SDS011;53067;48.114;11.694;2022-09-09T15:56:40;0.60;;;0.60;;
16502;SDS011;53067;48.114;11.694;2022-09-09T15:59:08;1.45;;;0.95;;
16502;SDS011;53067;48.114;11.694;2022-09-09T16:01:37;1.02;;;0.80;;
16502;SDS011;53067;48.114;11.694;2022-09-09T16:04:06;1.05;;;0.93;;
16502;SDS011;53067;48.114;11.694;2022-09-09T16:06:35;0.70;;;0.70;;
16502;SDS011;53067;48.114;11.694;2022-09-09T16:09:04;1.75;;;0.98;;
16502;SDS011;53067;48.114;11.694;2022-09-09T16:11:33;0.57;;;0.57;;
16502;SDS011;53067;48.114;11.694;2022-09-09T16:14:03;0.78;;;0.65;;
16502;SDS011;53067;48.114;11.694;2022-09-09T16:16:32;0.70;;;0.70;;
16502;SDS011;53067;48.114;11.694;2022-09-09T16:19:03;2.15;;;0.90;;